Time;durP1;ratioP1;P1;durP2;ratioP2;P2;SDS_P1;SDS_P2;PMS_P1;PMS_P2;Temp;Humidity;BMP_temperature;BMP_pressure;BME280_temperature;BME280_humidity;BME280_pressure;Samples;Min_cycle;Max_cycle;Signal;HPM_P1;HPM_P2
2023/05/14 00:02:22;;;;;;;1.37;1.27;;;15.20;71.20;;;;;;4894248;29;20661;-75
2023/05/14 00:04:50;;;;;;;2.73;1.67;;;15.20;71.10;;;;;;4894307;29;20208;-75
2023/05/14 00:07:20;;;;;;;1.40;1.30;;;15.20;70.80;;;;;;4891646;29;20203;-75
2023/05/14 00:09:48;;;;;;;3.37;1.33;;;15.10;71.30;;;;;;4892318;29;20657;-75
2023/05/14 00:12:16;;;;;;;1.50;1.40;;;15.10;71.90;;;;;;4892811;29;20817;-74
2023/05/14 00:14:45;;;;;;;1.00;0.93;;;15.10;71.60;;;;;;4895278;29;20192;-76
2023/05/14 00:17:13;;;;;;;1.10;0.70;;;15.00;72.30;;;;;;4890443;29;20253;-75
2023/05/14 00:19:41;;;;;;;1.23;1.13;;;15.00;72.20;;;;;;4888946;29;20193;-75
2023/05/14 00:22:09;;;;;;;2.20;1.43;;;15.00;72.40;;;;;;4890594;29;20211;-74
2023/05/14 00:24:39;;;;;;;1.83;1.03;;;15.00;73.00;;;;;;4897338;29;20714;-75
2023/05/14 00:27:08;;;;;;;1.63;1.03;;;14.90;73.40;;;;;;4892727;29;20792;-74
2023/05/14 00:29:37;;;;;;;0.83;0.83;;;14.80;73.90;;;;;;4894803;29;20261;-73
2023/05/14 00:32:06;;;;;;;2.57;1.87;;;14.90;73.50;;;;;;4891896;29;20303;-75
2023/05/14 00:34:34;;;;;;;3.00;1.90;;;14.80;73.50;;;;;;4896861;29;20556;-75
2023/05/14 00:37:03;;;;;;;1.30;1.10;;;14.80;73.70;;;;;;4890624;29;20193;-75
2023/05/14 00:39:31;;;;;;;1.33;1.17;;;14.80;74.10;;;;;;4893183;29;20669;-75
2023/05/14 00:42:01;;;;;;;1.17;1.07;;;14.70;74.40;;;;;;4892320;29;20230;-74
2023/05/14 00:44:29;;;;;;;3.17;1.87;;;14.70;75.00;;;;;;4890465;29;20291;-74
2023/05/14 00:46:58;;;;;;;2.60;2.30;;;14.70;74.90;;;;;;4893207;29;20276;-75
2023/05/14 00:49:27;;;;;;;1.17;1.07;;;14.70;74.70;;;;;;4893891;29;20264;-75
2023/05/14 00:51:57;;;;;;;1.53;1.43;;;14.60;74.40;;;;;;4890821;29;20193;-75
2023/05/14 00:54:26;;;;;;;1.23;1.13;;;14.60;74.70;;;;;;4893747;29;20252;-74
2023/05/14 00:56:56;;;;;;;1.37;1.27;;;14.60;75.50;;;;;;4892022;29;20256;-74
2023/05/14 00:59:26;;;;;;;5.17;1.33;;;14.60;75.60;;;;;;4892995;29;20231;-74
2023/05/14 01:01:54;;;;;;;2.87;0.90;;;14.50;75.90;;;;;;4891677;29;20193;-75
2023/05/14 01:04:23;;;;;;;1.60;1.37;;;14.50;76.80;;;;;;4892460;29;20192;-74
2023/05/14 01:07:02;;;;;;;1.57;1.47;;;14.40;77.00;;;;;;4893989;29;20554;-75
2023/05/14 01:09:41;;;;;;;1.40;0.87;;;14.40;77.20;;;;;;4892798;29;20222;-75
2023/05/14 01:12:18;;;;;;;1.97;1.57;;;14.40;77.40;;;;;;4891612;29;20220;-74
2023/05/14 01:14:57;;;;;;;1.57;1.40;;;14.40;77.40;;;;;;4892408;29;20255;-75
2023/05/14 01:17:29;;;;;;;1.17;1.07;;;14.40;77.40;;;;;;4893258;29;20248;-74
2023/05/14 01:20:00;;;;;;;1.47;1.37;;;14.30;77.60;;;;;;4893765;29;20208;-76
2023/05/14 01:22:30;;;;;;;5.43;1.50;;;14.40;77.50;;;;;;4890876;29;20200;-74
2023/05/14 01:25:01;;;;;;;5.33;1.20;;;14.30;77.60;;;;;;4892570;29;20200;-75
2023/05/14 01:27:35;;;;;;;2.50;1.47;;;14.30;77.70;;;;;;4892457;29;20205;-74
2023/05/14 01:30:11;;;;;;;0.90;0.90;;;14.30;77.60;;;;;;4890422;29;20192;-76
2023/05/14 01:32:41;;;;;;;1.70;1.43;;;14.30;77.70;;;;;;4889422;29;20275;-74
2023/05/14 01:35:10;;;;;;;2.93;1.50;;;14.30;77.70;;;;;;4895283;29;20204;-75
2023/05/14 01:37:41;;;;;;;2.13;1.90;;;14.30;77.90;;;;;;4892922;29;20688;-74
2023/05/14 01:40:11;;;;;;;5.00;1.23;;;14.30;77.50;;;;;;4893292;29;20651;-75
2023/05/14 01:42:40;;;;;;;2.63;1.53;;;14.30;77.60;;;;;;4892506;29;20208;-75
2023/05/14 01:45:09;;;;;;;1.50;1.17;;;14.30;77.40;;;;;;4890032;29;20196;-74
2023/05/14 01:47:37;;;;;;;1.03;0.93;;;14.30;77.40;;;;;;4893812;29;20197;-74
2023/05/14 01:50:06;;;;;;;1.03;1.00;;;14.30;77.30;;;;;;4889932;29;20200;-75
2023/05/14 01:52:35;;;;;;;2.83;1.37;;;14.30;77.30;;;;;;4894943;29;20244;-74
2023/05/14 01:55:05;;;;;;;1.77;1.13;;;14.20;77.50;;;;;;4893447;29;20220;-74
2023/05/14 01:57:33;;;;;;;0.63;0.63;;;14.20;77.40;;;;;;4895693;29;20224;-74
2023/05/14 02:00:02;;;;;;;1.37;1.10;;;14.30;77.20;;;;;;4893238;29;20227;-74
2023/05/14 02:02:31;;;;;;;1.70;1.43;;;14.20;77.50;;;;;;4893084;29;20234;-75
2023/05/14 02:04:59;;;;;;;2.27;0.97;;;14.20;77.10;;;;;;4895237;29;20204;-75
2023/05/14 02:07:27;;;;;;;1.37;1.27;;;14.20;77.20;;;;;;4892756;29;20257;-75
2023/05/14 02:09:56;;;;;;;0.50;0.50;;;14.20;77.00;;;;;;4894564;29;20197;-75
2023/05/14 02:12:26;;;;;;;0.50;0.50;;;14.20;77.20;;;;;;4890638;29;20200;-74
2023/05/14 02:14:54;;;;;;;2.23;1.67;;;14.20;76.90;;;;;;4884988;29;20239;-74
2023/05/14 02:17:24;;;;;;;0.80;0.60;;;14.20;77.10;;;;;;4892406;29;20658;-75
2023/05/14 02:19:52;;;;;;;1.37;1.00;;;14.20;77.00;;;;;;4891876;29;20291;-75
2023/05/14 02:22:21;;;;;;;1.10;1.00;;;14.20;77.20;;;;;;4892333;29;20250;-76
2023/05/14 02:24:50;;;;;;;2.80;1.63;;;14.20;77.60;;;;;;4892160;29;20296;-75
2023/05/14 02:27:18;;;;;;;2.93;1.70;;;14.20;77.10;;;;;;4890385;29;20617;-74
2023/05/14 02:29:48;;;;;;;1.67;1.20;;;14.20;77.00;;;;;;4892147;29;20192;-73
2023/05/14 02:32:16;;;;;;;1.13;1.00;;;14.20;77.00;;;;;;4896039;29;21411;-74
2023/05/14 02:34:45;;;;;;;1.23;1.13;;;14.20;76.90;;;;;;4889942;29;20239;-75
2023/05/14 02:37:13;;;;;;;1.63;1.53;;;14.20;76.90;;;;;;4892442;29;20271;-75
2023/05/14 02:39:41;;;;;;;0.80;0.80;;;14.20;76.80;;;;;;4890636;29;20240;-75
2023/05/14 02:42:10;;;;;;;1.73;1.43;;;14.20;76.50;;;;;;4889943;29;20296;-75
2023/05/14 02:44:38;;;;;;;2.07;1.30;;;14.20;76.40;;;;;;4892860;29;20720;-75
2023/05/14 02:47:08;;;;;;;1.17;1.07;;;14.20;76.30;;;;;;4893910;29;20669;-75
2023/05/14 02:49:36;;;;;;;5.87;1.07;;;14.20;76.30;;;;;;4893290;29;20283;-75
2023/05/14 02:52:05;;;;;;;2.90;0.60;;;14.20;76.30;;;;;;4894094;29;20567;-75
2023/05/14 02:54:33;;;;;;;4.50;1.13;;;14.20;76.30;;;;;;4890275;29;20319;-75
2023/05/14 02:57:01;;;;;;;0.60;0.60;;;14.20;76.50;;;;;;4889366;29;20317;-74
2023/05/14 02:59:30;;;;;;;6.63;1.03;;;14.10;76.40;;;;;;4891957;29;20201;-75
2023/05/14 03:01:59;;;;;;;1.33;1.23;;;14.10;76.40;;;;;;4891245;29;20203;-75
2023/05/14 03:04:29;;;;;;;3.87;1.17;;;14.10;76.50;;;;;;4890353;29;20287;-75
2023/05/14 03:06:57;;;;;;;0.73;0.73;;;14.10;76.10;;;;;;4891275;29;20264;-75
2023/05/14 03:09:25;;;;;;;0.80;0.80;;;14.20;76.40;;;;;;4890913;29;20288;-76
2023/05/14 03:11:54;;;;;;;1.27;1.17;;;14.10;76.10;;;;;;4890540;29;20358;-74
2023/05/14 03:14:23;;;;;;;1.43;1.20;;;14.20;76.30;;;;;;4889328;29;20240;-75
2023/05/14 03:16:51;;;;;;;1.50;1.10;;;14.20;76.30;;;;;;4892138;29;20201;-75
2023/05/14 03:19:19;;;;;;;1.70;1.60;;;14.20;76.30;;;;;;4890073;29;20615;-75
2023/05/14 03:21:49;;;;;;;0.70;0.70;;;14.20;76.30;;;;;;4890536;29;20207;-74
2023/05/14 03:24:17;;;;;;;1.07;0.90;;;14.20;76.30;;;;;;4893594;29;20212;-74
2023/05/14 03:26:46;;;;;;;0.83;0.77;;;14.20;76.40;;;;;;4890208;29;20224;-75
2023/05/14 03:29:16;;;;;;;0.60;0.60;;;14.20;76.40;;;;;;4891400;29;20239;-74
2023/05/14 03:31:45;;;;;;;1.73;1.53;;;14.30;76.30;;;;;;4889370;29;20228;-75
2023/05/14 03:34:13;;;;;;;2.07;0.93;;;14.30;76.40;;;;;;4889604;29;20247;-75
2023/05/14 03:36:42;;;;;;;2.63;1.07;;;14.30;76.30;;;;;;4891134;29;20329;-74
2023/05/14 03:39:14;;;;;;;0.80;0.57;;;14.30;76.30;;;;;;4893263;29;20208;-74
2023/05/14 03:41:42;;;;;;;2.30;1.10;;;14.30;76.30;;;;;;4890681;29;20286;-75
2023/05/14 03:44:10;;;;;;;1.40;1.10;;;14.40;76.60;;;;;;4886200;29;20193;-75
2023/05/14 03:46:39;;;;;;;2.37;1.23;;;14.30;76.50;;;;;;4889875;29;20253;-74
2023/05/14 03:49:07;;;;;;;1.50;1.40;;;14.40;76.50;;;;;;4881866;29;20558;-74
2023/05/14 03:51:36;;;;;;;1.05;1.05;;;14.40;76.50;;;;;;4889244;29;20794;-74
2023/05/14 03:54:04;;;;;;;2.33;1.83;;;14.40;76.80;;;;;;4892227;29;20347;-74
2023/05/14 03:56:34;;;;;;;1.70;0.80;;;14.30;77.00;;;;;;4891770;29;20205;-74
2023/05/14 03:59:02;;;;;;;1.50;0.87;;;14.30;76.80;;;;;;4891294;29;20614;-74
2023/05/14 04:01:31;;;;;;;1.23;0.93;;;14.30;76.80;;;;;;4890180;29;20243;-74
2023/05/14 04:03:59;;;;;;;1.40;1.30;;;14.30;76.80;;;;;;4890494;29;20208;-74
2023/05/14 04:06:27;;;;;;;1.67;1.47;;;14.40;76.60;;;;;;4890737;29;20220;-74
2023/05/14 04:08:56;;;;;;;1.13;0.93;;;14.40;76.80;;;;;;4891956;29;20260;-74
2023/05/14 04:11:24;;;;;;;3.70;1.17;;;14.30;76.90;;;;;;4889110;29;20642;-73
2023/05/14 04:13:54;;;;;;;0.73;0.73;;;14.40;76.90;;;;;;4892788;29;20205;-74
2023/05/14 04:16:22;;;;;;;0.93;0.80;;;14.40;76.80;;;;;;4886326;29;20252;-74
2023/05/14 04:18:50;;;;;;;1.03;0.87;;;14.50;77.00;;;;;;4893626;29;20201;-74
2023/05/14 04:21:19;;;;;;;1.17;1.10;;;14.50;76.90;;;;;;4888846;29;20208;-74
2023/05/14 04:23:47;;;;;;;2.53;1.40;;;14.60;77.10;;;;;;4892892;29;20653;-74
2023/05/14 04:26:15;;;;;;;1.93;1.10;;;14.70;76.90;;;;;;4893352;29;20255;-74
2023/05/14 04:28:44;;;;;;;1.63;1.43;;;14.80;76.90;;;;;;4894710;29;20196;-76
2023/05/14 04:31:14;;;;;;;1.33;0.77;;;14.80;77.10;;;;;;4893583;29;20723;-74
2023/05/14 04:33:42;;;;;;;0.70;0.70;;;14.90;76.70;;;;;;4896340;29;20264;-74
2023/05/14 04:36:11;;;;;;;0.60;0.60;;;14.90;76.60;;;;;;4894500;29;20259;-75
2023/05/14 04:38:40;;;;;;;0.83;0.53;;;15.00;76.50;;;;;;4894202;29;20296;-74
2023/05/14 04:41:08;;;;;;;1.27;0.97;;;15.00;76.20;;;;;;4893857;29;20193;-74
2023/05/14 04:43:36;;;;;;;1.10;0.50;;;15.10;76.20;;;;;;4894577;29;20192;-74
2023/05/14 04:46:05;;;;;;;0.93;0.87;;;15.10;76.20;;;;;;4888573;29;20224;-74
2023/05/14 04:48:34;;;;;;;1.63;0.87;;;15.10;76.00;;;;;;4894080;29;20228;-75
2023/05/14 04:51:03;;;;;;;0.97;0.87;;;15.20;76.00;;;;;;4891647;29;20205;-74
2023/05/14 04:53:34;;;;;;;1.43;0.93;;;15.20;76.10;;;;;;4892632;29;20336;-73
2023/05/14 04:56:02;;;;;;;1.63;1.30;;;15.30;76.40;;;;;;4893144;29;20232;-74
2023/05/14 04:58:31;;;;;;;1.27;1.17;;;15.30;76.30;;;;;;4896997;29;20649;-74
2023/05/14 05:01:03;;;;;;;1.77;1.63;;;15.40;76.10;;;;;;4896780;29;20283;-73
2023/05/14 05:03:33;;;;;;;2.10;1.40;;;15.50;76.10;;;;;;4896464;29;20228;-75
2023/05/14 05:06:02;;;;;;;1.37;1.23;;;15.60;76.00;;;;;;4899160;29;20211;-75
2023/05/14 05:08:30;;;;;;;1.60;1.07;;;15.70;75.80;;;;;;4895951;29;20593;-74
2023/05/14 05:10:59;;;;;;;2.10;1.33;;;15.70;75.30;;;;;;4895320;29;20200;-74
2023/05/14 05:13:27;;;;;;;1.50;1.00;;;15.80;74.80;;;;;;4904080;29;20327;-75
2023/05/14 05:15:55;;;;;;;0.77;0.73;;;15.80;74.60;;;;;;4893290;29;20224;-74
2023/05/14 05:18:24;;;;;;;1.60;1.23;;;15.80;74.50;;;;;;4893203;29;20649;-73
2023/05/14 05:20:53;;;;;;;1.30;1.20;;;15.90;74.40;;;;;;4891056;29;20200;-74
2023/05/14 05:23:21;;;;;;;4.47;2.00;;;16.00;74.50;;;;;;4892012;29;20304;-75
2023/05/14 05:25:50;;;;;;;2.60;1.20;;;16.10;74.50;;;;;;4895497;29;20196;-75
2023/05/14 05:28:18;;;;;;;2.93;1.73;;;16.20;74.30;;;;;;4895637;29;20263;-74
2023/05/14 05:30:46;;;;;;;5.17;1.43;;;16.30;73.80;;;;;;4891850;29;20256;-75
2023/05/14 05:33:15;;;;;;;1.40;1.10;;;16.30;73.60;;;;;;4891180;29;20232;-73
2023/05/14 05:35:43;;;;;;;0.90;0.60;;;16.40;73.30;;;;;;4893000;29;20264;-74
2023/05/14 05:38:14;;;;;;;2.53;0.90;;;16.50;73.30;;;;;;4893951;29;20654;-75
2023/05/14 05:40:42;;;;;;;3.43;1.37;;;16.60;73.00;;;;;;4888610;29;20252;-74
2023/05/14 05:43:12;;;;;;;1.10;1.00;;;16.70;72.50;;;;;;4894545;29;20192;-75
2023/05/14 05:45:41;;;;;;;1.50;0.80;;;16.80;72.40;;;;;;4894811;29;20642;-74
2023/05/14 05:48:09;;;;;;;1.67;1.23;;;16.90;72.30;;;;;;4891953;29;20209;-74
2023/05/14 05:50:37;;;;;;;7.07;2.23;;;16.90;71.80;;;;;;4893288;29;20192;-74
2023/05/14 05:53:06;;;;;;;1.93;1.17;;;17.00;71.40;;;;;;4889579;29;20330;-74
2023/05/14 05:55:35;;;;;;;2.10;1.23;;;17.00;71.10;;;;;;4892827;29;20330;-74
2023/05/14 05:58:04;;;;;;;3.50;1.43;;;17.10;71.30;;;;;;4888897;29;20192;-74
2023/05/14 06:00:32;;;;;;;2.43;1.40;;;17.20;71.20;;;;;;4887601;29;20240;-76
2023/05/14 06:03:00;;;;;;;2.83;1.50;;;17.30;71.00;;;;;;4891321;29;20200;-73
2023/05/14 06:05:29;;;;;;;3.70;1.87;;;17.40;70.60;;;;;;4891655;29;20713;-75
2023/05/14 06:07:57;;;;;;;0.80;0.80;;;17.50;70.50;;;;;;4895648;29;20200;-75
2023/05/14 06:10:26;;;;;;;1.90;1.43;;;17.60;70.70;;;;;;4891995;29;20201;-74
2023/05/14 06:12:55;;;;;;;1.87;1.10;;;17.70;69.80;;;;;;4895736;29;20260;-74
2023/05/14 06:15:24;;;;;;;3.23;1.40;;;17.80;69.80;;;;;;4891208;29;20692;-74
2023/05/14 06:17:52;;;;;;;1.87;1.33;;;17.90;69.20;;;;;;4890221;29;20204;-75
2023/05/14 06:20:20;;;;;;;2.93;0.97;;;18.00;69.10;;;;;;4890880;29;20196;-75
2023/05/14 06:22:49;;;;;;;1.17;1.00;;;18.10;68.70;;;;;;4893277;29;20196;-74
2023/05/14 06:25:17;;;;;;;1.07;0.90;;;18.20;68.00;;;;;;4888029;29;20200;-76
2023/05/14 06:27:46;;;;;;;2.63;1.60;;;18.30;67.80;;;;;;4890867;29;20196;-75
2023/05/14 06:30:16;;;;;;;0.87;0.83;;;18.30;67.60;;;;;;4882105;29;20722;-74
2023/05/14 06:32:44;;;;;;;1.53;0.60;;;18.40;67.80;;;;;;4894172;29;20240;-75
2023/05/14 06:35:13;;;;;;;0.87;0.73;;;18.50;67.90;;;;;;4888706;29;20238;-76
2023/05/14 06:37:41;;;;;;;1.13;0.67;;;18.60;67.70;;;;;;4893261;29;20193;-76
2023/05/14 06:40:11;;;;;;;1.13;1.00;;;18.70;67.10;;;;;;4889694;29;20204;-75
2023/05/14 06:42:39;;;;;;;0.87;0.73;;;18.80;67.10;;;;;;4889807;29;20208;-75
2023/05/14 06:45:08;;;;;;;0.87;0.57;;;18.90;66.80;;;;;;4889251;29;20235;-75
2023/05/14 06:47:38;;;;;;;0.50;0.50;;;19.00;66.90;;;;;;4888687;29;20209;-75
2023/05/14 06:50:07;;;;;;;1.23;0.87;;;19.10;66.70;;;;;;4890807;29;20244;-74
2023/05/14 06:52:38;;;;;;;0.20;0.20;;;19.20;66.40;;;;;;4885802;29;20676;-75
2023/05/14 06:55:09;;;;;;;1.33;0.87;;;19.30;66.00;;;;;;4884689;29;20235;-74
2023/05/14 06:57:37;;;;;;;0.50;0.50;;;19.40;65.00;;;;;;4893013;29;20258;-75
2023/05/14 07:00:09;;;;;;;0.40;0.40;;;19.50;65.00;;;;;;4897427;29;20228;-75
2023/05/14 07:02:38;;;;;;;0.70;0.53;;;19.60;64.80;;;;;;4890998;29;20196;-75
2023/05/14 07:05:09;;;;;;;1.03;0.70;;;19.60;64.10;;;;;;4895327;29;20196;-73
2023/05/14 07:07:37;;;;;;;1.30;0.80;;;19.70;64.30;;;;;;4887030;29;20553;-76
2023/05/14 07:10:12;;;;;;;0.80;0.80;;;19.70;64.10;;;;;;4889337;29;20575;-75
2023/05/14 07:12:40;;;;;;;0.60;0.47;;;19.70;63.70;;;;;;4889913;29;20653;-74
2023/05/14 07:15:10;;;;;;;0.37;0.37;;;19.80;64.30;;;;;;4895120;29;20196;-74
2023/05/14 07:17:41;;;;;;;1.80;1.37;;;19.80;64.40;;;;;;4889655;29;20224;-77
2023/05/14 07:20:10;;;;;;;1.07;0.77;;;19.90;63.30;;;;;;4891417;29;20646;-75
2023/05/14 07:22:38;;;;;;;0.77;0.73;;;19.90;62.00;;;;;;4894115;29;20196;-75
2023/05/14 07:25:07;;;;;;;1.20;0.97;;;19.90;61.90;;;;;;4891133;29;20207;-75
2023/05/14 07:27:35;;;;;;;0.60;0.60;;;20.00;60.80;;;;;;4891782;29;20630;-75
2023/05/14 07:30:04;;;;;;;0.55;0.55;;;20.10;61.20;;;;;;4895295;29;20201;-75
2023/05/14 07:32:32;;;;;;;0.70;0.65;;;20.20;61.00;;;;;;4888551;29;20224;-76
2023/05/14 07:35:07;;;;;;;0.43;0.40;;;20.20;60.10;;;;;;4885520;29;20197;-75
2023/05/14 07:37:39;;;;;;;1.77;0.90;;;20.30;60.30;;;;;;4891908;29;20217;-74
2023/05/14 07:40:08;;;;;;;0.93;0.80;;;20.30;59.50;;;;;;4890269;29;20200;-76
2023/05/14 07:42:37;;;;;;;0.73;0.60;;;20.40;60.60;;;;;;4895120;29;20236;-76
2023/05/14 07:45:06;;;;;;;0.60;0.60;;;20.50;60.20;;;;;;4888343;29;20196;-73
2023/05/14 07:47:34;;;;;;;1.70;0.57;;;20.60;60.50;;;;;;4891294;29;20232;-75
2023/05/14 07:50:03;;;;;;;0.40;0.40;;;20.70;60.20;;;;;;4890161;29;20279;-75
2023/05/14 07:52:33;;;;;;;0.88;0.77;;;20.80;60.40;;;;;;4886288;29;20658;-75
2023/05/14 07:55:03;;;;;;;0.60;0.50;;;20.90;59.90;;;;;;4895517;29;20556;-74
2023/05/14 07:57:31;;;;;;;0.95;0.43;;;21.00;59.60;;;;;;4888721;29;20240;-75
2023/05/14 07:59:59;;;;;;;1.23;0.80;;;21.10;59.40;;;;;;4883944;29;20197;-76
2023/05/14 08:02:28;;;;;;;1.05;0.65;;;21.20;59.90;;;;;;4891794;29;21888;-73
2023/05/14 08:04:57;;;;;;;2.35;0.65;;;21.20;58.50;;;;;;4895351;29;20208;-75
2023/05/14 08:07:26;;;;;;;1.45;0.60;;;21.20;57.10;;;;;;4892288;29;20272;-75
2023/05/14 08:09:56;;;;;;;1.10;0.60;;;21.30;57.90;;;;;;4891100;29;20207;-75
2023/05/14 08:12:25;;;;;;;1.02;0.65;;;21.30;57.50;;;;;;4892814;29;20725;-75
2023/05/14 08:14:53;;;;;;;0.98;0.65;;;21.40;57.90;;;;;;4896138;29;20197;-75
2023/05/14 08:17:22;;;;;;;0.45;0.45;;;21.50;57.80;;;;;;4894770;29;20260;-75
2023/05/14 08:19:50;;;;;;;0.80;0.50;;;21.50;57.40;;;;;;4895862;29;20279;-75
2023/05/14 08:22:18;;;;;;;0.63;0.50;;;21.60;57.50;;;;;;4896020;29;20200;-74
2023/05/14 08:24:47;;;;;;;0.70;0.70;;;21.70;57.00;;;;;;4892950;29;20224;-75
2023/05/14 08:27:17;;;;;;;0.47;0.47;;;21.70;56.70;;;;;;4886443;29;20197;-74
2023/05/14 08:29:46;;;;;;;0.75;0.50;;;21.70;56.00;;;;;;4887440;29;20311;-76
2023/05/14 08:32:14;;;;;;;0.82;0.65;;;21.70;55.70;;;;;;4894217;29;20251;-75
2023/05/14 08:34:51;;;;;;;0.40;0.40;;;21.80;56.00;;;;;;4894241;29;20188;-74
2023/05/14 08:37:19;;;;;;;1.17;0.82;;;21.80;56.10;;;;;;4893313;29;20228;-75
2023/05/14 08:39:47;;;;;;;0.75;0.50;;;21.90;55.50;;;;;;4893086;29;20743;-75
2023/05/14 08:42:21;;;;;;;0.73;0.70;;;21.90;55.40;;;;;;4895559;29;20224;-74
2023/05/14 08:44:53;;;;;;;0.55;0.50;;;21.90;54.40;;;;;;4889179;29;20200;-75
2023/05/14 08:47:23;;;;;;;0.82;0.45;;;21.90;54.20;;;;;;4891876;29;20304;-76
2023/05/14 08:50:03;;;;;;;0.60;0.60;;;22.00;54.10;;;;;;4895370;29;20709;-74
2023/05/14 08:52:32;;;;;;;1.65;0.73;;;22.10;54.30;;;;;;4893028;29;20842;-75
2023/05/14 08:55:03;;;;;;;0.77;0.70;;;22.10;54.00;;;;;;4895340;29;20614;-74
2023/05/14 08:57:34;;;;;;;2.67;1.33;;;22.20;54.40;;;;;;4890932;29;20312;-74
2023/05/14 09:00:07;;;;;;;2.35;1.08;;;22.30;53.90;;;;;;4894715;29;20200;-75
2023/05/14 09:02:36;;;;;;;0.60;0.60;;;22.30;51.40;;;;;;4889782;29;20208;-74
2023/05/14 09:05:08;;;;;;;0.85;0.70;;;22.30;52.30;;;;;;4893823;29;20197;-75
2023/05/14 09:07:36;;;;;;;0.70;0.70;;;22.30;51.10;;;;;;4895663;29;20609;-74
2023/05/14 09:10:05;;;;;;;0.90;0.77;;;22.30;50.90;;;;;;4894005;29;20196;-75
2023/05/14 09:12:35;;;;;;;0.60;0.50;;;22.40;51.10;;;;;;4891333;29;20209;-75
2023/05/14 09:15:04;;;;;;;0.77;0.75;;;22.50;51.70;;;;;;4896376;29;20252;-74
2023/05/14 09:17:34;;;;;;;3.15;0.85;;;22.60;51.00;;;;;;4894842;29;20657;-75
2023/05/14 09:23:35;;;;;;;2.08;0.80;;;22.70;50.70;;;;;;4891739;29;20259;-75
2023/05/14 09:26:07;;;;;;;0.60;0.50;;;22.70;50.50;;;;;;4892672;29;20212;-76
2023/05/14 09:28:39;;;;;;;0.60;0.50;;;22.80;51.10;;;;;;4889195;29;20295;-75
2023/05/14 09:31:08;;;;;;;0.60;0.60;;;22.90;51.20;;;;;;4900177;29;20286;-76
2023/05/14 09:33:49;;;;;;;0.73;0.73;;;22.90;50.60;;;;;;4904883;29;20204;-76
2023/05/14 09:36:20;;;;;;;0.93;0.80;;;23.00;51.40;;;;;;4907812;29;20246;-76
2023/05/14 09:38:49;;;;;;;1.15;0.70;;;23.00;50.80;;;;;;4908227;29;20267;-75
2023/05/14 09:41:21;;;;;;;0.80;0.63;;;23.00;50.80;;;;;;4905670;29;20199;-75
2023/05/14 09:43:51;;;;;;;0.95;0.60;;;23.00;50.50;;;;;;4910005;29;20227;-76
2023/05/14 09:46:20;;;;;;;1.20;0.43;;;23.10;50.80;;;;;;4902162;29;20334;-75
2023/05/14 09:48:49;;;;;;;0.50;0.50;;;23.10;50.00;;;;;;4906434;29;20456;-75
2023/05/14 09:51:17;;;;;;;1.00;0.93;;;23.10;50.30;;;;;;4906612;29;20278;-75
2023/05/14 09:53:46;;;;;;;1.10;0.63;;;23.10;50.60;;;;;;4872570;29;20205;-75
2023/05/14 09:56:15;;;;;;;2.80;0.70;;;23.20;50.80;;;;;;4910137;29;20196;-76
2023/05/14 09:58:43;;;;;;;0.85;0.60;;;23.30;50.10;;;;;;4904792;29;20220;-76
2023/05/14 10:01:14;;;;;;;1.02;0.50;;;23.30;48.90;;;;;;4911069;29;20243;-77
2023/05/14 10:03:43;;;;;;;0.38;0.38;;;23.40;49.10;;;;;;4913328;29;20198;-77
2023/05/14 10:06:15;;;;;;;0.45;0.40;;;23.30;48.60;;;;;;4912192;29;20199;-75
2023/05/14 10:08:45;;;;;;;0.30;0.30;;;23.30;48.40;;;;;;4912211;29;20195;-75
2023/05/14 10:11:16;;;;;;;0.85;0.55;;;23.30;48.40;;;;;;4909027;29;20207;-75
2023/05/14 10:13:52;;;;;;;0.65;0.45;;;23.40;48.40;;;;;;4907377;29;20192;-75
2023/05/14 10:16:27;;;;;;;1.00;0.88;;;23.40;48.10;;;;;;4903127;29;20653;-76
2023/05/14 10:19:04;;;;;;;1.50;0.70;;;23.30;47.80;;;;;;4902728;29;20570;-76
2023/05/14 10:21:35;;;;;;;0.47;0.47;;;23.40;48.50;;;;;;4909604;29;20199;-75
2023/05/14 10:24:04;;;;;;;0.47;0.47;;;23.50;48.70;;;;;;4910292;29;20194;-75
2023/05/14 10:26:36;;;;;;;0.68;0.68;;;23.60;48.60;;;;;;4909876;29;20648;-75
2023/05/14 10:29:09;;;;;;;1.88;0.90;;;23.70;48.60;;;;;;4910012;29;20260;-76
2023/05/14 10:31:48;;;;;;;0.40;0.40;;;23.70;48.60;;;;;;4905089;29;20252;-76
2023/05/14 10:34:37;;;;;;;1.05;0.50;;;23.70;47.70;;;;;;4907326;29;20202;-76
2023/05/14 10:37:08;;;;;;;1.08;0.70;;;23.70;46.50;;;;;;4909578;29;20188;-75
2023/05/14 10:39:45;;;;;;;0.98;0.73;;;23.70;46.20;;;;;;4911053;29;20251;-75
2023/05/14 10:42:15;;;;;;;1.02;0.60;;;23.70;46.90;;;;;;4905167;29;20219;-75
2023/05/14 10:44:49;;;;;;;0.50;0.50;;;23.70;47.00;;;;;;4906975;29;20196;-74
2023/05/14 10:47:19;;;;;;;2.78;1.15;;;23.70;47.20;;;;;;4904242;29;20187;-74
2023/05/14 10:49:48;;;;;;;0.90;0.88;;;23.80;47.60;;;;;;4903343;29;20350;-76
2023/05/14 10:52:20;;;;;;;4.38;1.13;;;23.80;47.60;;;;;;4909211;29;20374;-75
2023/05/14 10:54:57;;;;;;;1.80;1.55;;;23.80;47.70;;;;;;4906250;29;20657;-75
2023/05/14 11:01:23;;;;;;;0.40;0.40;;;23.90;47.30;;;;;;4906643;29;20299;-73
2023/05/14 11:03:54;;;;;;;0.40;0.40;;;23.90;47.60;;;;;;4910154;29;20203;-75
2023/05/14 11:06:23;;;;;;;2.08;1.05;;;24.00;48.10;;;;;;4902741;29;20196;-76
2023/05/14 11:08:52;;;;;;;0.45;0.45;;;23.90;47.30;;;;;;4910376;29;20227;-77
2023/05/14 11:11:20;;;;;;;1.08;0.65;;;23.90;46.50;;;;;;4911813;29;20252;-76
2023/05/14 11:13:51;;;;;;;0.30;0.30;;;24.00;46.50;;;;;;4907027;29;20204;-78
2023/05/14 11:16:22;;;;;;;0.35;0.35;;;24.00;46.50;;;;;;4907307;29;20299;-76
2023/05/14 11:19:02;;;;;;;1.52;0.75;;;24.10;47.10;;;;;;4905817;29;20263;-75
2023/05/14 11:21:31;;;;;;;0.50;0.50;;;24.10;47.40;;;;;;4899447;29;20233;-75
2023/05/14 11:24:02;;;;;;;0.63;0.63;;;24.00;46.10;;;;;;4910311;29;20203;-76
2023/05/14 11:26:31;;;;;;;1.85;0.63;;;24.10;46.20;;;;;;4905505;29;20196;-76
2023/05/14 11:29:00;;;;;;;0.75;0.60;;;24.10;46.40;;;;;;4907645;29;20206;-75
2023/05/14 11:31:28;;;;;;;0.70;0.60;;;24.20;46.60;;;;;;4906627;29;20583;-75
2023/05/14 11:34:02;;;;;;;0.82;0.82;;;24.30;46.50;;;;;;4901535;29;20598;-75
2023/05/14 11:36:38;;;;;;;2.25;0.90;;;24.30;46.30;;;;;;4904334;29;20203;-76
2023/05/14 11:39:18;;;;;;;1.95;0.90;;;24.40;46.40;;;;;;4908522;29;20242;-75
2023/05/14 11:41:46;;;;;;;0.90;0.70;;;24.40;47.20;;;;;;4908502;29;20192;-77
2023/05/14 11:44:15;;;;;;;3.85;0.77;;;24.50;46.60;;;;;;4911501;29;20266;-75
2023/05/14 11:46:54;;;;;;;1.90;0.70;;;24.50;46.20;;;;;;4908436;29;20204;-74
2023/05/14 11:49:24;;;;;;;0.50;0.50;;;24.50;45.90;;;;;;4905760;29;20196;-76
2023/05/14 11:51:58;;;;;;;2.40;1.45;;;24.60;46.60;;;;;;4901989;29;20224;-75
2023/05/14 11:54:27;;;;;;;1.05;0.77;;;24.70;46.90;;;;;;4903932;29;20278;-76
2023/05/14 11:56:56;;;;;;;1.30;1.02;;;24.80;47.00;;;;;;4906165;29;20200;-75
2023/05/14 11:59:25;;;;;;;6.80;3.25;;;24.80;46.80;;;;;;4897303;29;20272;-76
2023/05/14 12:01:53;;;;;;;1.90;1.25;;;24.90;46.90;;;;;;4909851;29;20291;-77
2023/05/14 12:04:24;;;;;;;6.35;2.60;;;25.00;46.90;;;;;;4903547;29;20227;-76
2023/05/14 12:06:53;;;;;;;3.90;1.35;;;25.00;46.50;;;;;;4900825;29;20283;-75
2023/05/14 12:09:22;;;;;;;1.52;0.63;;;25.00;46.80;;;;;;4910706;29;20204;-75
2023/05/14 12:11:52;;;;;;;1.17;0.55;;;25.10;46.60;;;;;;4906778;29;20268;-75
2023/05/14 12:14:42;;;;;;;0.73;0.73;;;25.20;46.90;;;;;;4906391;29;20242;-76
2023/05/14 12:17:13;;;;;;;0.50;0.40;;;25.20;45.50;;;;;;4905054;29;20196;-75
2023/05/14 12:19:44;;;;;;;0.40;0.40;;;25.30;45.50;;;;;;4909899;29;20280;-76
2023/05/14 12:22:15;;;;;;;2.88;1.30;;;25.20;44.40;;;;;;4901534;29;20200;-76
2023/05/14 12:24:52;;;;;;;0.52;0.35;;;25.20;45.50;;;;;;4905600;29;20606;-75
2023/05/14 12:27:22;;;;;;;1.02;0.90;;;25.30;45.60;;;;;;4904872;29;20196;-75
2023/05/14 12:29:53;;;;;;;1.02;0.88;;;25.30;45.50;;;;;;4907541;29;20719;-75
2023/05/14 12:32:21;;;;;;;1.85;0.50;;;25.40;45.70;;;;;;4910231;29;20231;-76
2023/05/14 12:34:53;;;;;;;1.42;0.82;;;25.40;46.10;;;;;;4898363;29;20196;-75
2023/05/14 12:37:21;;;;;;;0.60;0.60;;;25.40;46.10;;;;;;4900390;29;20248;-75
2023/05/14 12:39:50;;;;;;;0.60;0.60;;;25.40;45.70;;;;;;4900962;29;20597;-74
2023/05/14 12:42:18;;;;;;;0.80;0.65;;;25.40;46.10;;;;;;4903381;29;20260;-76
2023/05/14 12:44:46;;;;;;;2.15;0.93;;;25.40;45.80;;;;;;4904074;29;20264;-75
2023/05/14 12:47:15;;;;;;;3.78;1.00;;;25.40;46.10;;;;;;4907407;29;20624;-76
2023/05/14 12:49:44;;;;;;;0.82;0.80;;;25.50;45.80;;;;;;4909659;29;20593;-76
2023/05/14 12:52:13;;;;;;;0.77;0.75;;;25.50;46.20;;;;;;4908399;29;21934;-76
2023/05/14 12:54:45;;;;;;;0.45;0.45;;;25.60;46.40;;;;;;4903273;29;20196;-75
2023/05/14 12:57:13;;;;;;;1.65;0.77;;;25.60;45.90;;;;;;4905666;29;20220;-75
2023/05/14 12:59:41;;;;;;;1.25;0.85;;;25.70;46.10;;;;;;4909110;29;20228;-75
2023/05/14 13:02:09;;;;;;;1.15;0.70;;;25.70;46.90;;;;;;4911525;29;20271;-76
2023/05/14 13:04:38;;;;;;;0.55;0.52;;;25.80;46.40;;;;;;4906649;29;20267;-76
2023/05/14 13:07:10;;;;;;;0.93;0.75;;;25.70;44.10;;;;;;4905318;29;20622;-76
2023/05/14 13:09:39;;;;;;;1.00;0.52;;;25.70;45.10;;;;;;4906489;29;20231;-75